NCAR-RAP Real-Time Weather Data

Output produced by METARs form (26 September 2017  14:31 UTC)
found at http://weather.rap.ucar.edu/surface/
 
Conditions at: KTPA observed 26 September 2017  13:53 UTC
Temperature: 28.9°C (84°F)
Dewpoint: 23.3°C (74°F) [RH = 72%]
Pressure (altimeter): 29.94 inches Hg (1014.0 mb)
[Sea-level pressure: 1013.8 mb]
Winds: from the ESE (120 degrees) at 5 MPH (4 knots; 2.1 m/s)
Visibility: 10 or more miles (16+ km)
Ceiling: at least 12,000 feet AGL
Clouds: few clouds at 2200 feet AGL
Present Weather:
SOME DATA ABOVE MAY BE INACCURATE!!!
"$" is an indication the sensor requires maintenance
KTPA 261353Z 12004KT 10SM FEW022 29/23 A2994 RMK AO2 SLP138 T02890233 $

Conditions at: KTPA observed 26 September 2017  12:53 UTC
Temperature: 27.8°C (82°F)
Dewpoint: 22.8°C (73°F) [RH = 74%]
Pressure (altimeter): 29.94 inches Hg (1014.0 mb)
[Sea-level pressure: 1013.8 mb]
Winds: calm
Visibility: 10 or more miles (16+ km)
Ceiling: at least 12,000 feet AGL
Clouds: few clouds at 2000 feet AGL
Present Weather:
SOME DATA ABOVE MAY BE INACCURATE!!!
"$" is an indication the sensor requires maintenance
KTPA 261253Z 00000KT 10SM FEW020 28/23 A2994 RMK AO2 SLP138 T02780228 $

Conditions at: KTPA observed 26 September 2017  11:53 UTC
Temperature: 26.1°C (79°F)
Dewpoint: 22.8°C (73°F) [RH = 82%]
Pressure (altimeter): 29.92 inches Hg (1013.3 mb)
[Sea-level pressure: 1013.0 mb]
Winds: calm
Visibility: 10 or more miles (16+ km)
Ceiling: at least 12,000 feet AGL
Clouds: few clouds at 1500 feet AGL
Present Weather:
SOME DATA ABOVE MAY BE INACCURATE!!!
"$" is an indication the sensor requires maintenance
KTPA 261153Z 00000KT 10SM FEW015 26/23 A2992 RMK AO2 SLP130 T02610228 10267 20250 53015 $

Conditions at: KTPA observed 26 September 2017  10:53 UTC
Temperature: 25.6°C (78°F)
Dewpoint: 22.2°C (72°F) [RH = 82%]
Pressure (altimeter): 29.90 inches Hg (1012.6 mb)
[Sea-level pressure: 1012.4 mb]
Winds: calm
Visibility: 10 or more miles (16+ km)
Ceiling: at least 12,000 feet AGL
Clouds: few clouds at 6000 feet AGL
Present Weather:
SOME DATA ABOVE MAY BE INACCURATE!!!
"$" is an indication the sensor requires maintenance
KTPA 261053Z 00000KT 10SM FEW060 26/22 A2990 RMK AO2 SLP124 T02560222 $

Conditions at: KTPA observed 26 September 2017  09:53 UTC
Temperature: 25.6°C (78°F)
Dewpoint: 22.2°C (72°F) [RH = 82%]
Pressure (altimeter): 29.88 inches Hg (1011.9 mb)
[Sea-level pressure: 1011.8 mb]
Winds: calm
Visibility: 10 or more miles (16+ km)
Ceiling: at least 12,000 feet AGL
Clouds: sky clear below 12,000 feet AGL
Present Weather:
SOME DATA ABOVE MAY BE INACCURATE!!!
"$" is an indication the sensor requires maintenance
KTPA 260953Z 00000KT 10SM CLR 26/22 A2988 RMK AO2 SLP118 T02560222 $

Conditions at: KTPA observed 26 September 2017  08:53 UTC
Temperature: 25.6°C (78°F)
Dewpoint: 22.2°C (72°F) [RH = 82%]
Pressure (altimeter): 29.87 inches Hg (1011.6 mb)
[Sea-level pressure: 1011.5 mb]
Winds: calm
Visibility: 10 or more miles (16+ km)
Ceiling: at least 12,000 feet AGL
Clouds: few clouds at 9000 feet AGL
Present Weather:
SOME DATA ABOVE MAY BE INACCURATE!!!
"$" is an indication the sensor requires maintenance
KTPA 260853Z 00000KT 10SM FEW090 26/22 A2987 RMK AO2 SLP115 T02560222 56008 $

Conditions at: KTPA observed 26 September 2017  07:53 UTC
Temperature: 26.7°C (80°F)
Dewpoint: 22.2°C (72°F) [RH = 76%]
Pressure (altimeter): 29.88 inches Hg (1011.9 mb)
[Sea-level pressure: 1011.9 mb]
Winds: calm
Visibility: 10 or more miles (16+ km)
Ceiling: at least 12,000 feet AGL
Clouds: scattered clouds at 5000 feet AGL
Present Weather:
SOME DATA ABOVE MAY BE INACCURATE!!!
"$" is an indication the sensor requires maintenance
KTPA 260753Z 00000KT 10SM SCT050 27/22 A2988 RMK AO2 SLP119 T02670222 $

Conditions at: KTPA observed 26 September 2017  06:53 UTC
Temperature: 26.7°C (80°F)
Dewpoint: 22.2°C (72°F) [RH = 76%]
Pressure (altimeter): 29.88 inches Hg (1011.9 mb)
[Sea-level pressure: 1011.9 mb]
Winds: calm
Visibility: 10 or more miles (16+ km)
Ceiling: 8000 feet AGL
Clouds: scattered clouds at 5500 feet AGL
broken clouds at 8000 feet AGL
Present Weather:
SOME DATA ABOVE MAY BE INACCURATE!!!
"$" is an indication the sensor requires maintenance
KTPA 260653Z 00000KT 10SM SCT055 BKN080 27/22 A2988 RMK AO2 SLP119 T02670222 $

Conditions at: KTPA observed 26 September 2017  05:53 UTC
Temperature: 26.7°C (80°F)
Dewpoint: 22.2°C (72°F) [RH = 76%]
Pressure (altimeter): 29.90 inches Hg (1012.6 mb)
[Sea-level pressure: 1012.4 mb]
Winds: from the E (80 degrees) at 3 MPH (3 knots; 1.6 m/s)
Visibility: 10 or more miles (16+ km)
Ceiling: 7000 feet AGL
Clouds: scattered clouds at 4000 feet AGL
broken clouds at 7000 feet AGL
Present Weather:
SOME DATA ABOVE MAY BE INACCURATE!!!
"$" is an indication the sensor requires maintenance
KTPA 260553Z 08003KT 10SM SCT040 BKN070 27/22 A2990 RMK AO2 SLP124 T02670222 10289 20256 53001 $

Conditions at: KTPA observed 26 September 2017  04:53 UTC
Temperature: 26.1°C (79°F)
Dewpoint: 22.8°C (73°F) [RH = 82%]
Pressure (altimeter): 29.89 inches Hg (1012.3 mb)
[Sea-level pressure: 1012.1 mb]
Winds: calm
Visibility: 10 or more miles (16+ km)
Ceiling: at least 12,000 feet AGL
Clouds: few clouds at 4000 feet AGL
scattered clouds at 6500 feet AGL
Present Weather:
SOME DATA ABOVE MAY BE INACCURATE!!!
"$" is an indication the sensor requires maintenance
KTPA 260453Z 00000KT 10SM FEW040 SCT065 26/23 A2989 RMK AO2 SLP121 T02610228 403280256 $

Conditions at: KTPA observed 26 September 2017  03:53 UTC
Temperature: 26.7°C (80°F)
Dewpoint: 22.2°C (72°F) [RH = 76%]
Pressure (altimeter): 29.89 inches Hg (1012.3 mb)
[Sea-level pressure: 1012.2 mb]
Winds: from the NNW (340 degrees) at 5 MPH (4 knots; 2.1 m/s)
Visibility: 10 or more miles (16+ km)
Ceiling: at least 12,000 feet AGL
Clouds: few clouds at 4000 feet AGL
Present Weather:
SOME DATA ABOVE MAY BE INACCURATE!!!
"$" is an indication the sensor requires maintenance
KTPA 260353Z 34004KT 10SM FEW040 27/22 A2989 RMK AO2 SLP122 T02670222 $

Conditions at: KTPA observed 26 September 2017  02:53 UTC
Temperature: 26.1°C (79°F)
Dewpoint: 21.7°C (71°F) [RH = 77%]
Pressure (altimeter): 29.90 inches Hg (1012.6 mb)
[Sea-level pressure: 1012.3 mb]
Winds: calm
Visibility: 10 or more miles (16+ km)
Ceiling: at least 12,000 feet AGL
Clouds: scattered clouds at 19000 feet AGL
Present Weather:
SOME DATA ABOVE MAY BE INACCURATE!!!
"$" is an indication the sensor requires maintenance
KTPA 260253Z 00000KT 10SM SCT190 26/22 A2990 RMK AO2 SLP123 T02610217 51013 $

Conditions at: KTPA observed 26 September 2017  01:53 UTC
Temperature: 27.2°C (81°F)
Dewpoint: 21.1°C (70°F) [RH = 69%]
Pressure (altimeter): 29.89 inches Hg (1012.3 mb)
[Sea-level pressure: 1012.2 mb]
Winds: from the NW (320 degrees) at 6 MPH (5 knots; 2.6 m/s)
Visibility: 10 or more miles (16+ km)
Ceiling: at least 12,000 feet AGL
Clouds: few clouds at 15000 feet AGL
Present Weather:
SOME DATA ABOVE MAY BE INACCURATE!!!
"$" is an indication the sensor requires maintenance
KTPA 260153Z 32005KT 10SM FEW150 27/21 A2989 RMK AO2 SLP122 T02720211 $

Conditions at: KTPA observed 26 September 2017  00:53 UTC
Temperature: 27.8°C (82°F)
Dewpoint: 20.6°C (69°F) [RH = 65%]
Pressure (altimeter): 29.87 inches Hg (1011.6 mb)
[Sea-level pressure: 1011.5 mb]
Winds: from the NW (310 degrees) at 5 MPH (4 knots; 2.1 m/s)
Visibility: 10 or more miles (16+ km)
Ceiling: at least 12,000 feet AGL
Clouds: few clouds at 20000 feet AGL
Present Weather:
SOME DATA ABOVE MAY BE INACCURATE!!!
"$" is an indication the sensor requires maintenance
KTPA 260053Z 31004KT 10SM FEW200 28/21 A2987 RMK AO2 SLP115 T02780206 $

Conditions at: KTPA observed 25 September 2017  23:53 UTC
Temperature: 28.9°C (84°F)
Dewpoint: 20.6°C (69°F) [RH = 61%]
Pressure (altimeter): 29.86 inches Hg (1011.3 mb)
[Sea-level pressure: 1011.0 mb]
Winds: from the WNW (290 degrees) at 6 MPH (5 knots; 2.6 m/s)
Visibility: 10 or more miles (16+ km)
Ceiling: at least 12,000 feet AGL
Clouds: few clouds at 3300 feet AGL
few clouds at 10000 feet AGL
scattered clouds at 25000 feet AGL
Present Weather:
SOME DATA ABOVE MAY BE INACCURATE!!!
"$" is an indication the sensor requires maintenance
KTPA 252353Z 29005KT 10SM FEW033 FEW100 SCT250 29/21 A2986 RMK AO2 SLP110 T02890206 10328 20289 53008 $

Conditions at: KTPA observed 25 September 2017  22:53 UTC
Temperature: 30.6°C (87°F)
Dewpoint: 20.6°C (69°F) [RH = 55%]
Pressure (altimeter): 29.84 inches Hg (1010.6 mb)
[Sea-level pressure: 1010.5 mb]
Winds: from the NW (310 degrees) at 9 MPH (8 knots; 4.2 m/s)
Visibility: 10 or more miles (16+ km)
Ceiling: 25000 feet AGL
Clouds: few clouds at 3000 feet AGL
few clouds at 5000 feet AGL
scattered clouds at 12000 feet AGL
broken clouds at 25000 feet AGL
Present Weather:
SOME DATA ABOVE MAY BE INACCURATE!!!
"$" is an indication the sensor requires maintenance
KTPA 252253Z 31008KT 10SM FEW030 FEW050 SCT120 BKN250 31/21 A2984 RMK AO2 SLP105 T03060206 $

Conditions at: KTPA observed 25 September 2017  21:53 UTC
Temperature: 31.1°C (88°F)
Dewpoint: 21.1°C (70°F) [RH = 55%]
Pressure (altimeter): 29.83 inches Hg (1010.2 mb)
[Sea-level pressure: 1009.9 mb]
Winds: from the WNW (290 degrees) at 9 MPH (8 knots; 4.2 m/s)
Visibility: 10 or more miles (16+ km)
Ceiling: 25000 feet AGL
Clouds: few clouds at 3300 feet AGL
few clouds at 4500 feet AGL
scattered clouds at 11000 feet AGL
broken clouds at 25000 feet AGL
Present Weather:
SOME DATA ABOVE MAY BE INACCURATE!!!
"$" is an indication the sensor requires maintenance
KTPA 252153Z 29008KT 10SM FEW033 FEW045 SCT110 BKN250 31/21 A2983 RMK AO2 SLP099 T03110211 $

Conditions at: KTPA observed 25 September 2017  20:53 UTC
Temperature: 32.2°C (90°F)
Dewpoint: 22.2°C (72°F) [RH = 56%]
Pressure (altimeter): 29.83 inches Hg (1010.2 mb)
[Sea-level pressure: 1010.2 mb]
Winds: from the W (260 degrees) at 13 MPH (11 knots; 5.7 m/s)
gusting to 21 MPH (18 knots; 9.4 m/s)
Visibility: 10 or more miles (16+ km)
Ceiling: at least 12,000 feet AGL
Clouds: few clouds at 4600 feet AGL
scattered clouds at 9000 feet AGL
scattered clouds at 25000 feet AGL
Present Weather:
SOME DATA ABOVE MAY BE INACCURATE!!!
"$" is an indication the sensor requires maintenance
KTPA 252053Z 26011G18KT 10SM FEW046 SCT090 SCT250 32/22 A2983 RMK AO2 LTG DSNT S SLP102 CB DSNT SE TCU DSNT NE-SE AND SW T03220222 56019 $

Conditions at: KTPA observed 25 September 2017  19:53 UTC
Temperature: 32.8°C (91°F)
Dewpoint: 21.1°C (70°F) [RH = 50%]
Pressure (altimeter): 29.85 inches Hg (1010.9 mb)
[Sea-level pressure: 1010.6 mb]
Winds: from the WSW (240 degrees) at 9 MPH (8 knots; 4.2 m/s)
Visibility: 10 or more miles (16+ km)
Ceiling: 25000 feet AGL
Clouds: scattered clouds at 4800 feet AGL
scattered clouds at 9000 feet AGL
broken clouds at 25000 feet AGL
Present Weather:
SOME DATA ABOVE MAY BE INACCURATE!!!
"$" is an indication the sensor requires maintenance
KTPA 251953Z 24008KT 10SM SCT048 SCT090 BKN250 33/21 A2985 RMK AO2 SLP106 T03280211 $

Conditions at: KTPA observed 25 September 2017  18:53 UTC
Temperature: 32.2°C (90°F)
Dewpoint: 20.6°C (69°F) [RH = 50%]
Pressure (altimeter): 29.86 inches Hg (1011.3 mb)
[Sea-level pressure: 1011.2 mb]
Winds: from the WSW (250 degrees) at 8 MPH (7 knots; 3.6 m/s)
Visibility: 10 or more miles (16+ km)
Ceiling: at least 12,000 feet AGL
Clouds: few clouds at 4500 feet AGL
scattered clouds at 9000 feet AGL
scattered clouds at 25000 feet AGL
Present Weather:
SOME DATA ABOVE MAY BE INACCURATE!!!
"$" is an indication the sensor requires maintenance
KTPA 251853Z 25007KT 10SM FEW045 SCT090 SCT250 32/21 A2986 RMK AO2 SLP112 CB DSNT SW T03220206 $

Conditions at: KTPA observed 25 September 2017  17:53 UTC
Temperature: 30.6°C (87°F)
Dewpoint: 22.2°C (72°F) [RH = 61%]
Pressure (altimeter): 29.89 inches Hg (1012.3 mb)
[Sea-level pressure: 1012.1 mb]
Winds: from the WSW (240 degrees) at 8 MPH (7 knots; 3.6 m/s)
Visibility: 10 or more miles (16+ km)
Ceiling: 9000 feet AGL
Clouds: scattered clouds at 3000 feet AGL
broken clouds at 9000 feet AGL
Present Weather:
SOME DATA ABOVE MAY BE INACCURATE!!!
"$" is an indication the sensor requires maintenance
KTPA 251753Z 24007KT 10SM SCT030 BKN090 31/22 A2989 RMK AO2 SLP121 TCU DSNT SW T03060222 10317 20256 58014 $

Conditions at: KTPA observed 25 September 2017  16:53 UTC
Temperature: 30.6°C (87°F)
Dewpoint: 23.3°C (74°F) [RH = 65%]
Pressure (altimeter): 29.92 inches Hg (1013.3 mb)
[Sea-level pressure: 1012.9 mb]
Winds: from the WSW (240 degrees) at 8 MPH (7 knots; 3.6 m/s)
Visibility: 10 or more miles (16+ km)
Ceiling: at least 12,000 feet AGL
Clouds: few clouds at 3000 feet AGL
few clouds at 8500 feet AGL
scattered clouds at 25000 feet AGL
Present Weather:
SOME DATA ABOVE MAY BE INACCURATE!!!
"$" is an indication the sensor requires maintenance
KTPA 251653Z 24007KT 10SM FEW030 FEW085 SCT250 31/23 A2992 RMK AO2 SLP129 T03060233 $

Conditions at: KTPA observed 25 September 2017  15:53 UTC
Temperature: 30.6°C (87°F)
Dewpoint: 22.8°C (73°F) [RH = 63%]
Pressure (altimeter): 29.93 inches Hg (1013.6 mb)
[Sea-level pressure: 1013.4 mb]
Winds: calm
Visibility: 10 or more miles (16+ km)
Ceiling: at least 12,000 feet AGL
Clouds: scattered clouds at 8500 feet AGL
scattered clouds at 25000 feet AGL
Present Weather:
SOME DATA ABOVE MAY BE INACCURATE!!!
"$" is an indication the sensor requires maintenance
KTPA 251553Z 00000KT 10SM SCT085 SCT250 31/23 A2993 RMK AO2 SLP134 T03060228 $

Conditions at: KTPA observed 25 September 2017  14:53 UTC
Temperature: 28.3°C (83°F)
Dewpoint: 22.2°C (72°F) [RH = 70%]
Pressure (altimeter): 29.93 inches Hg (1013.6 mb)
[Sea-level pressure: 1013.6 mb]
Winds: from the ENE (60 degrees) at 3 MPH (3 knots; 1.6 m/s)
Visibility: 10 or more miles (16+ km)
Ceiling: 8500 feet AGL
Clouds: broken clouds at 8500 feet AGL
broken clouds at 25000 feet AGL
Present Weather:
SOME DATA ABOVE MAY BE INACCURATE!!!
"$" is an indication the sensor requires maintenance
KTPA 251453Z 06003KT 10SM BKN085 BKN250 28/22 A2993 RMK AO2 SLP136 T02830222 51007 $